createdAt,value
2023-01-28T02:31:56.252Z,102572.63
2023-01-28T02:33:07.674Z,102571.67
2023-01-28T02:34:26.473Z,102569.80
2023-01-28T02:35:38.186Z,102571.55
2023-01-28T02:36:48.968Z,102566.07
2023-01-28T02:37:58.402Z,102570.85
2023-01-28T02:39:08.718Z,102569.18
2023-01-28T02:40:21.771Z,102565.78
2023-01-28T02:41:36.385Z,102567.42
2023-01-28T02:42:41.195Z,102566.00
2023-01-28T02:43:47.199Z,102565.61
2023-01-28T02:44:50.336Z,102563.65
2023-01-28T02:46:12.806Z,102566.21
2023-01-28T02:47:35.344Z,102563.35
2023-01-28T02:48:38.945Z,102564.14
2023-01-28T02:49:47.651Z,102565.49
2023-01-28T02:51:03.393Z,102562.15
2023-01-28T02:52:48.286Z,102562.91
2023-01-28T02:54:00.145Z,102564.05
2023-01-28T02:55:26.645Z,102563.23
2023-01-28T02:56:44.119Z,102563.05
2023-01-28T02:57:54.777Z,102564.87
2023-01-28T02:59:29.694Z,102566.48
2023-01-28T03:00:36.201Z,102565.30
2023-01-28T03:01:42.938Z,102568.69
2023-01-28T03:03:01.264Z,102568.17
2023-01-28T03:04:16.375Z,102566.46
2023-01-28T03:05:22.551Z,102566.84
2023-01-28T03:06:29.012Z,102566.83
2023-01-28T03:07:34.354Z,102567.83
2023-01-28T03:09:01.153Z,102565.55
2023-01-28T03:10:06.295Z,102564.14
2023-01-28T03:11:27.623Z,102564.34
2023-01-28T03:12:50.275Z,102564.45
2023-01-28T03:14:11.940Z,102561.22
2023-01-28T03:15:33.783Z,102561.56
2023-01-28T03:16:55.839Z,102561.64
2023-01-28T03:18:20.285Z,102559.83
2023-01-28T03:19:42.735Z,102562.02
2023-01-28T03:21:11.137Z,102560.58
2023-01-28T03:22:32.839Z,102563.51
2023-01-28T03:24:02.533Z,102562.18
2023-01-28T03:25:27.714Z,102558.80
2023-01-28T03:26:52.035Z,102559.88
2023-01-28T03:28:15.956Z,102552.85
2023-01-28T03:29:41.922Z,102550.38
2023-01-28T03:31:13.641Z,102549.77
2023-01-28T03:32:42.148Z,102549.66
2023-01-28T03:34:04.093Z,102549.19
2023-01-28T03:35:27.679Z,102551.95
2023-01-28T03:36:50.360Z,102549.41
2023-01-28T03:38:21.132Z,102549.38
2023-01-28T03:39:26.114Z,102550.72
2023-01-28T03:40:29.001Z,102547.40
2023-01-28T03:41:31.840Z,102547.77
2023-01-28T03:42:35.267Z,102546.56
2023-01-28T03:43:45.481Z,102545.10
2023-01-28T03:44:55.377Z,102545.09
2023-01-28T03:45:58.435Z,102540.77
2023-01-28T03:47:01.331Z,102543.05
2023-01-28T03:48:04.214Z,102542.16
2023-01-28T03:49:07.093Z,102545.99
2023-01-28T03:50:10.507Z,102545.30
2023-01-28T03:51:26.004Z,102549.11
2023-01-28T03:52:32.497Z,102546.61
2023-01-28T03:54:04.725Z,102543.15
2023-01-28T03:55:13.572Z,102546.23
2023-01-28T03:56:18.705Z,102544.26
2023-01-28T03:57:23.581Z,102547.81
2023-01-28T03:58:40.384Z,102547.59
2023-01-28T03:59:43.411Z,102548.33
2023-01-28T04:00:49.625Z,102547.61
2023-01-28T04:01:53.452Z,102548.14
2023-01-28T04:02:56.832Z,102550.05
2023-01-28T04:04:01.069Z,102546.80
2023-01-28T04:05:07.114Z,102551.70
2023-01-28T04:06:11.698Z,102553.86
2023-01-28T04:07:33.689Z,102555.06
2023-01-28T04:08:53.437Z,102557.71
2023-01-28T04:10:15.787Z,102555.59
2023-01-28T04:11:33.372Z,102552.45
2023-01-28T04:12:42.124Z,102553.71
2023-01-28T04:13:49.305Z,102552.86
2023-01-28T04:14:53.299Z,102551.27
2023-01-28T04:16:05.704Z,102553.57
2023-01-28T04:17:13.555Z,102549.67
2023-01-28T04:18:19.739Z,102549.61
2023-01-28T04:19:26.084Z,102546.88
2023-01-28T04:20:30.411Z,102544.39
2023-01-28T04:21:35.920Z,102544.31
2023-01-28T04:22:40.098Z,102545.82
2023-01-28T04:23:45.479Z,102546.02
2023-01-28T04:24:49.950Z,102547.58
2023-01-28T04:25:54.088Z,102549.71
2023-01-28T04:26:58.126Z,102545.59
2023-01-28T04:28:02.078Z,102547.28
2023-01-28T04:29:06.584Z,102546.48
2023-01-28T04:30:11.349Z,102543.73
2023-01-28T04:31:17.334Z,102547.53
2023-01-28T04:32:50.736Z,102548.77
2023-01-28T04:34:03.552Z,102549.36
2023-01-28T04:35:25.437Z,102550.89
2023-01-28T04:36:54.215Z,102550.06
2023-01-28T04:38:18.187Z,102549.86
2023-01-28T04:39:32.593Z,102550.91
2023-01-28T04:41:11.302Z,102547.52
2023-01-28T04:42:14.437Z,102542.73
2023-01-28T04:43:41.064Z,102544.11
2023-01-28T04:45:08.729Z,102541.70
2023-01-28T04:46:24.803Z,102539.23
2023-01-28T04:47:49.119Z,102540.60
2023-01-28T04:49:02.170Z,102537.38
2023-01-28T04:50:23.301Z,102536.71
2023-01-28T04:52:04.668Z,102537.52
2023-01-28T04:53:37.139Z,102541.17
2023-01-28T04:54:45.326Z,102543.34
2023-01-28T04:55:49.627Z,102544.92
2023-01-28T04:56:52.554Z,102544.36
2023-01-28T04:57:55.598Z,102545.36
2023-01-28T04:58:58.392Z,102544.61
2023-01-28T05:00:01.277Z,102547.60
2023-01-28T05:01:04.481Z,102547.27
2023-01-28T05:02:08.440Z,102545.38
2023-01-28T05:03:11.280Z,102546.32
2023-01-28T05:04:14.358Z,102546.05
2023-01-28T05:05:17.726Z,102547.99
2023-01-28T05:06:31.674Z,102552.53
2023-01-28T05:07:38.254Z,102554.46
2023-01-28T05:08:41.335Z,102553.40
2023-01-28T05:09:44.383Z,102554.04
2023-01-28T05:10:47.329Z,102554.91
2023-01-28T05:11:50.259Z,102549.70
2023-01-28T05:12:53.341Z,102550.32
2023-01-28T05:13:56.457Z,102550.63
2023-01-28T05:15:03.824Z,102551.89
2023-01-28T05:16:08.433Z,102552.70
2023-01-28T05:17:11.923Z,102553.41
2023-01-28T05:18:15.202Z,102553.48
2023-01-28T05:19:23.515Z,102552.79
2023-01-28T05:20:26.468Z,102553.40
2023-01-28T05:21:32.296Z,102555.14
2023-01-28T05:22:39.243Z,102553.87
2023-01-28T05:24:11.401Z,102554.52
2023-01-28T05:25:14.635Z,102553.09
2023-01-28T05:26:20.666Z,102557.72
2023-01-28T05:27:23.749Z,102557.21
2023-01-28T05:28:26.634Z,102556.84
2023-01-28T05:29:29.384Z,102557.07
2023-01-28T05:30:32.970Z,102554.96
2023-01-28T05:31:37.364Z,102558.71
2023-01-28T05:32:40.674Z,102557.66
2023-01-28T05:33:43.761Z,102559.80
2023-01-28T05:34:48.016Z,102558.92
2023-01-28T05:35:51.409Z,102558.24
2023-01-28T05:36:55.875Z,102560.71
2023-01-28T05:38:08.348Z,102558.34
2023-01-28T05:39:11.297Z,102559.91
2023-01-28T05:40:15.108Z,102559.30
2023-01-28T05:41:18.275Z,102556.31
2023-01-28T05:42:23.452Z,102554.82
2023-01-28T05:43:31.818Z,102551.71
2023-01-28T05:44:54.526Z,102551.27
2023-01-28T05:46:18.080Z,102555.11
2023-01-28T05:47:39.566Z,102557.40
2023-01-28T05:49:22.552Z,102557.05
2023-01-28T05:50:25.748Z,102553.48
2023-01-28T05:51:48.540Z,102552.45
2023-01-28T05:52:55.512Z,102555.42
2023-01-28T05:54:02.948Z,102556.85
2023-01-28T05:55:06.803Z,102556.01
2023-01-28T05:56:10.173Z,102557.25
2023-01-28T05:57:24.666Z,102556.87
2023-01-28T05:58:31.112Z,102556.83
2023-01-28T05:59:39.868Z,102555.02
2023-01-28T06:00:42.790Z,102553.86
2023-01-28T06:01:54.982Z,102549.20
2023-01-28T06:02:57.828Z,102547.34
2023-01-28T06:04:01.007Z,102546.92
2023-01-28T06:05:06.220Z,102544.41
2023-01-28T06:06:09.029Z,102543.85
2023-01-28T06:07:13.533Z,102549.19
2023-01-28T06:08:19.651Z,102549.10
2023-01-28T06:09:23.796Z,102547.79
2023-01-28T06:10:27.182Z,102550.58
2023-01-28T06:11:31.362Z,102552.25
2023-01-28T06:12:39.323Z,102550.88
2023-01-28T06:14:11.371Z,102551.05
2023-01-28T06:15:31.181Z,102551.20
2023-01-28T06:16:42.037Z,102554.16
2023-01-28T06:18:01.197Z,102554.08
2023-01-28T06:19:08.036Z,102553.46
2023-01-28T06:20:11.342Z,102550.07
2023-01-28T06:21:16.171Z,102549.52
2023-01-28T06:22:19.260Z,102548.21
2023-01-28T06:23:23.519Z,102544.39
2023-01-28T06:24:26.365Z,102546.75
2023-01-28T06:25:29.462Z,102548.66
2023-01-28T06:26:39.060Z,102545.49
2023-01-28T06:27:43.305Z,102544.91
2023-01-28T06:28:50.187Z,102543.77
2023-01-28T06:29:53.491Z,102543.58
2023-01-28T06:30:56.420Z,102545.32
2023-01-28T06:32:00.929Z,102544.40
2023-01-28T06:33:03.729Z,102547.55
2023-01-28T06:34:06.790Z,102550.56
2023-01-28T06:35:09.826Z,102552.54
2023-01-28T06:36:14.849Z,102554.13
2023-01-28T06:37:17.640Z,102554.28
2023-01-28T06:38:21.757Z,102556.94
2023-01-28T06:39:27.883Z,102553.24
2023-01-28T06:40:30.715Z,102553.58
2023-01-28T06:43:09.849Z,102548.70
2023-01-28T06:44:13.143Z,102554.35
2023-01-28T06:45:18.466Z,102554.15
2023-01-28T06:46:21.371Z,102557.77
2023-01-28T06:47:25.549Z,102556.58
2023-01-28T06:48:30.141Z,102557.39
2023-01-28T06:49:32.977Z,102560.05
2023-01-28T06:50:36.165Z,102560.94
2023-01-28T06:51:39.009Z,102562.14
2023-01-28T06:52:42.276Z,102564.05
2023-01-28T06:53:46.107Z,102568.55
2023-01-28T06:54:49.110Z,102565.45
2023-01-28T06:55:52.128Z,102568.02
2023-01-28T06:56:54.859Z,102565.63
2023-01-28T06:57:57.755Z,102567.86
2023-01-28T06:59:01.159Z,102566.71
2023-01-28T07:00:05.038Z,102564.73
2023-01-28T07:01:14.170Z,102564.30
2023-01-28T07:02:30.749Z,102564.00
2023-01-28T07:03:41.179Z,102561.52
2023-01-28T07:04:44.059Z,102564.49
2023-01-28T07:05:48.899Z,102561.62
2023-01-28T07:06:55.076Z,102561.06
2023-01-28T07:07:58.119Z,102562.25
2023-01-28T07:09:00.826Z,102564.48
2023-01-28T07:10:05.360Z,102565.26
2023-01-28T07:11:08.562Z,102566.45
2023-01-28T07:12:11.489Z,102566.07
2023-01-28T07:13:14.213Z,102567.88
2023-01-28T07:14:16.995Z,102571.73
2023-01-28T07:15:19.823Z,102569.35
2023-01-28T07:16:22.704Z,102566.88
2023-01-28T07:17:25.647Z,102562.42
2023-01-28T07:18:28.466Z,102565.92
2023-01-28T07:19:31.236Z,102562.23
2023-01-28T07:20:34.025Z,102557.66
2023-01-28T07:21:36.864Z,102558.35
2023-01-28T07:22:43.904Z,102558.77
2023-01-28T07:23:46.722Z,102563.40
2023-01-28T07:24:49.543Z,102562.73
2023-01-28T07:25:52.393Z,102563.52
2023-01-28T07:26:55.252Z,102562.68
2023-01-28T07:27:58.184Z,102566.19
2023-01-28T07:29:00.977Z,102564.45
2023-01-28T07:30:04.021Z,102566.09
2023-01-28T07:31:06.929Z,102568.02
2023-01-28T07:32:10.057Z,102568.56
2023-01-28T07:33:13.261Z,102569.90
2023-01-28T07:34:16.071Z,102570.21
2023-01-28T07:35:18.843Z,102568.29
2023-01-28T07:36:21.709Z,102571.63
2023-01-28T07:37:24.548Z,102568.77
2023-01-28T07:38:27.483Z,102569.64
2023-01-28T07:39:30.203Z,102571.00
2023-01-28T07:40:32.971Z,102573.23
2023-01-28T07:41:36.087Z,102571.61
2023-01-28T07:42:42.377Z,102573.75
2023-01-28T07:43:48.053Z,102569.38
2023-01-28T07:44:50.854Z,102570.73
2023-01-28T07:45:53.701Z,102569.70
2023-01-28T07:46:56.488Z,102573.09
2023-01-28T07:48:04.160Z,102572.06
2023-01-28T07:49:07.671Z,102572.80
2023-01-28T07:50:11.056Z,102572.87
2023-01-28T07:51:14.167Z,102570.27
2023-01-28T07:52:17.213Z,102571.06
2023-01-28T07:53:20.507Z,102569.56
2023-01-28T07:54:23.881Z,102570.66
2023-01-28T07:55:28.284Z,102568.34
2023-01-28T07:56:33.146Z,102571.36
2023-01-28T07:57:35.975Z,102572.38
2023-01-28T07:58:39.598Z,102571.15
2023-01-28T07:59:42.783Z,102570.91
2023-01-28T08:00:45.702Z,102567.49
2023-01-28T08:01:48.619Z,102570.08
2023-01-28T08:02:55.493Z,102567.89
2023-01-28T08:03:58.653Z,102568.80
2023-01-28T08:05:01.940Z,102567.69
2023-01-28T08:06:04.995Z,102566.27
2023-01-28T08:07:08.289Z,102563.07
2023-01-28T08:08:11.327Z,102560.77
2023-01-28T08:09:14.139Z,102559.21
2023-01-28T08:10:18.033Z,102558.04
2023-01-28T08:11:21.241Z,102556.12
2023-01-28T08:12:24.735Z,102557.48
2023-01-28T08:13:27.823Z,102553.69
2023-01-28T08:14:33.517Z,102554.13
2023-01-28T08:15:37.153Z,102556.05
2023-01-28T08:16:39.942Z,102550.61
2023-01-28T08:17:42.697Z,102551.83
2023-01-28T08:18:45.457Z,102550.58
2023-01-28T08:19:48.506Z,102547.08
2023-01-28T08:20:55.313Z,102546.34
2023-01-28T08:21:58.077Z,102545.06
2023-01-28T08:23:17.737Z,102544.61
2023-01-28T08:24:20.591Z,102546.73
2023-01-28T08:25:23.408Z,102550.89
2023-01-28T08:26:26.287Z,102555.65
2023-01-28T08:27:29.127Z,102552.59
2023-01-28T08:28:32.248Z,102554.47
2023-01-28T08:29:35.056Z,102553.66
2023-01-28T08:30:39.039Z,102555.63
2023-01-28T08:31:42.094Z,102555.38
2023-01-28T08:32:44.947Z,102554.02
2023-01-28T08:33:47.678Z,102559.35
2023-01-28T08:34:51.117Z,102558.18
2023-01-28T08:35:54.084Z,102560.23
2023-01-28T08:36:57.087Z,102561.95
2023-01-28T08:38:00.678Z,102563.34
2023-01-28T08:39:05.275Z,102561.21
2023-01-28T08:40:08.755Z,102566.15
2023-01-28T08:41:11.824Z,102566.80
2023-01-28T08:42:14.750Z,102565.26
2023-01-28T08:43:17.575Z,102566.64
2023-01-28T08:44:20.491Z,102562.20
2023-01-28T08:45:27.666Z,102562.21
2023-01-28T08:46:31.111Z,102563.23
2023-01-28T08:47:34.111Z,102568.44
2023-01-28T08:48:38.530Z,102568.59
2023-01-28T08:49:41.312Z,102566.55
2023-01-28T08:50:45.121Z,102569.08
2023-01-28T08:51:47.943Z,102569.36
2023-01-28T08:52:55.750Z,102574.18
2023-01-28T08:53:58.520Z,102569.59
2023-01-28T08:55:01.309Z,102568.21
2023-01-28T08:56:04.163Z,102571.48
2023-01-28T08:57:06.993Z,102569.51
2023-01-28T08:58:11.191Z,102572.70
2023-01-28T08:59:14.041Z,102573.15
2023-01-28T09:00:17.483Z,102576.02
2023-01-28T09:01:20.493Z,102574.41
2023-01-28T09:02:31.452Z,102573.82
2023-01-28T09:03:36.273Z,102571.55
2023-01-28T09:04:39.336Z,102572.58
2023-01-28T09:05:42.167Z,102569.04
2023-01-28T09:06:44.958Z,102568.02
2023-01-28T09:07:48.486Z,102561.66
2023-01-28T09:08:51.377Z,102563.66
2023-01-28T09:09:54.124Z,102569.20
2023-01-28T09:10:57.854Z,102566.28
2023-01-28T09:12:00.603Z,102569.46
2023-01-28T09:13:07.187Z,102570.90
2023-01-28T09:14:10.215Z,102570.69
2023-01-28T09:15:12.970Z,102569.50
2023-01-28T09:16:15.806Z,102571.27
2023-01-28T09:17:18.957Z,102567.89
2023-01-28T09:18:22.018Z,102568.80
2023-01-28T09:19:25.160Z,102567.41
2023-01-28T09:20:27.956Z,102570.13
2023-01-28T09:21:30.689Z,102568.73
2023-01-28T09:22:33.437Z,102569.51
2023-01-28T09:23:39.374Z,102571.88
2023-01-28T09:24:42.679Z,102572.59
2023-01-28T09:25:45.472Z,102574.71
2023-01-28T09:26:48.843Z,102574.55
2023-01-28T09:27:51.892Z,102575.80
2023-01-28T09:28:54.839Z,102579.00
2023-01-28T09:29:57.791Z,102572.70
2023-01-28T09:31:11.242Z,102568.25
2023-01-28T09:32:14.126Z,102569.85
2023-01-28T09:33:17.010Z,102570.23
2023-01-28T09:34:19.794Z,102574.27
2023-01-28T09:35:22.917Z,102576.77
2023-01-28T09:36:25.750Z,102578.79
2023-01-28T09:37:28.512Z,102582.56
2023-01-28T09:38:31.968Z,102581.09
2023-01-28T09:39:34.785Z,102580.83
2023-01-28T09:40:40.934Z,102579.58
2023-01-28T09:42:02.594Z,102577.38
2023-01-28T09:43:25.853Z,102576.99
2023-01-28T09:44:51.943Z,102574.31
2023-01-28T09:46:03.075Z,102571.70
2023-01-28T09:47:10.649Z,102570.04
2023-01-28T09:48:15.145Z,102576.95
2023-01-28T09:49:23.422Z,102577.89
2023-01-28T09:50:35.221Z,102579.19
2023-01-28T09:51:42.387Z,102575.16
2023-01-28T09:52:45.259Z,102572.64
2023-01-28T09:53:50.901Z,102568.52
2023-01-28T09:55:05.913Z,102562.99
2023-01-28T09:56:14.482Z,102563.98
2023-01-28T09:57:20.991Z,102566.80
2023-01-28T09:58:23.772Z,102565.16
2023-01-28T09:59:26.554Z,102566.70
2023-01-28T10:00:29.280Z,102566.09
2023-01-28T10:01:39.018Z,102567.98
2023-01-28T10:02:51.551Z,102570.34
2023-01-28T10:03:57.433Z,102569.67
2023-01-28T10:05:08.379Z,102569.59
2023-01-28T10:06:34.426Z,102569.29
2023-01-28T10:07:37.382Z,102563.45
2023-01-28T10:08:59.168Z,102563.00
2023-01-28T10:10:06.411Z,102558.83
2023-01-28T10:11:24.138Z,102559.70
2023-01-28T10:12:45.940Z,102560.85
2023-01-28T10:13:53.609Z,102562.38
2023-01-28T10:15:15.265Z,102561.75
2023-01-28T10:16:21.434Z,102562.52
2023-01-28T10:17:24.173Z,102555.09
2023-01-28T10:18:47.100Z,102552.33
2023-01-28T10:19:53.809Z,102550.63
2023-01-28T10:21:02.631Z,102552.50
2023-01-28T10:22:26.035Z,102549.38
2023-01-28T10:23:34.626Z,102554.50
2023-01-28T10:24:47.147Z,102556.83
2023-01-28T10:25:50.239Z,102556.69
2023-01-28T10:26:53.389Z,102549.92
2023-01-28T10:27:56.183Z,102544.86
2023-01-28T10:29:03.839Z,102545.00
2023-01-28T10:30:25.016Z,102543.45
2023-01-28T10:31:32.025Z,102545.25
2023-01-28T10:32:37.297Z,102547.85
2023-01-28T10:33:40.348Z,102550.69
2023-01-28T10:34:43.277Z,102550.85
2023-01-28T10:35:48.064Z,102548.22
2023-01-28T10:36:51.539Z,102545.80
2023-01-28T10:37:59.287Z,102542.08
2023-01-28T10:39:02.218Z,102534.23
2023-01-28T10:40:05.825Z,102529.70
2023-01-28T10:41:11.152Z,102528.57
2023-01-28T10:42:24.012Z,102523.73
2023-01-28T10:43:29.829Z,102530.48
2023-01-28T10:44:36.121Z,102529.83
2023-01-28T10:45:42.868Z,102530.14
2023-01-28T10:46:48.253Z,102530.16
2023-01-28T10:48:14.065Z,102530.48
2023-01-28T10:49:19.421Z,102530.77
2023-01-28T10:50:23.780Z,102524.36
2023-01-28T10:51:30.703Z,102522.61
2023-01-28T10:52:33.451Z,102523.90
2023-01-28T10:53:46.139Z,102525.68
2023-01-28T10:54:58.844Z,102517.88
2023-01-28T10:56:02.649Z,102516.38
2023-01-28T10:57:09.672Z,102511.27
2023-01-28T10:58:24.054Z,102508.73
2023-01-28T10:59:28.056Z,102508.23
2023-01-28T11:00:35.713Z,102511.68
2023-01-28T11:01:58.756Z,102510.23
2023-01-28T11:03:01.563Z,102514.45
2023-01-28T11:04:04.557Z,102515.33
2023-01-28T11:05:17.762Z,102516.40
2023-01-28T11:06:25.287Z,102511.84
2023-01-28T11:07:28.064Z,102513.46
2023-01-28T11:08:31.646Z,102510.60
2023-01-28T11:09:35.806Z,102510.64
2023-01-28T11:10:40.543Z,102512.77
2023-01-28T11:11:43.341Z,102509.50
2023-01-28T11:12:54.550Z,102508.95
2023-01-28T11:13:58.718Z,102513.27
2023-01-28T11:15:05.592Z,102513.95
2023-01-28T11:16:17.657Z,102511.91
2023-01-28T11:17:24.722Z,102512.09
2023-01-28T11:18:30.221Z,102509.98
2023-01-28T11:19:36.597Z,102507.00
2023-01-28T11:20:42.160Z,102505.23
2023-01-28T11:21:48.977Z,102502.41
2023-01-28T11:22:52.829Z,102503.95
2023-01-28T11:24:06.992Z,102504.54
2023-01-28T11:25:23.202Z,102506.09
2023-01-28T11:26:29.636Z,102507.73
2023-01-28T11:27:33.404Z,102509.95
2023-01-28T11:28:40.188Z,102512.80
2023-01-28T11:29:43.331Z,102511.80
2023-01-28T11:30:51.159Z,102505.88
2023-01-28T11:31:54.581Z,102501.36
2023-01-28T11:33:00.211Z,102498.59
2023-01-28T11:34:05.046Z,102494.61
2023-01-28T11:35:08.175Z,102497.55
2023-01-28T11:36:14.608Z,102496.20
2023-01-28T11:37:18.698Z,102493.02
2023-01-28T11:38:23.458Z,102492.18
2023-01-28T11:39:28.686Z,102490.55
2023-01-28T11:40:31.412Z,102492.36
2023-01-28T11:41:35.763Z,102486.81
2023-01-28T11:42:38.873Z,102488.04
2023-01-28T11:43:43.482Z,102489.59
2023-01-28T11:44:47.336Z,102485.64
2023-01-28T11:46:05.212Z,102483.48
2023-01-28T11:47:13.953Z,102475.29
2023-01-28T11:48:19.281Z,102476.05
2023-01-28T11:49:43.712Z,102475.60
2023-01-28T11:51:12.824Z,102478.25
2023-01-28T11:52:21.871Z,102483.15
2023-01-28T11:53:28.037Z,102483.16
2023-01-28T11:54:36.765Z,102484.80
2023-01-28T11:55:53.409Z,102481.66
2023-01-28T11:57:17.072Z,102485.91
2023-01-28T11:58:27.315Z,102480.34
2023-01-28T11:59:36.417Z,102474.08
2023-01-28T12:00:58.029Z,102476.48
2023-01-28T12:02:00.765Z,102465.38
2023-01-28T12:03:19.028Z,102464.52
2023-01-28T12:04:30.956Z,102465.01
2023-01-28T12:05:45.935Z,102460.55
2023-01-28T12:07:00.850Z,102464.08
2023-01-28T12:08:10.649Z,102466.83
2023-01-28T12:09:32.393Z,102470.54
2023-01-28T12:10:54.185Z,102478.17
2023-01-28T12:12:12.188Z,102473.42
2023-01-28T12:13:33.916Z,102466.10
2023-01-28T12:14:48.763Z,102462.48
2023-01-28T12:15:57.268Z,102454.95
2023-01-28T12:17:00.229Z,102454.17
2023-01-28T12:18:18.994Z,102452.38
2023-01-28T12:19:27.794Z,102452.86
2023-01-28T12:20:49.522Z,102452.33
2023-01-28T12:21:58.110Z,102450.57
2023-01-28T12:23:19.712Z,102451.06
2023-01-28T12:24:30.362Z,102448.71
2023-01-28T12:25:47.939Z,102444.98
2023-01-28T12:26:50.673Z,102439.90
2023-01-28T12:28:08.899Z,102440.00
2023-01-28T12:29:26.795Z,102439.48
2023-01-28T12:30:37.675Z,102435.73
2023-01-28T12:31:43.215Z,102433.45
2023-01-28T12:33:03.314Z,102434.40
2023-01-28T12:34:24.981Z,102435.93
2023-01-28T12:35:32.596Z,102436.98
2023-01-28T12:36:45.050Z,102438.14
2023-01-28T12:37:57.774Z,102440.19
2023-01-28T12:39:20.899Z,102441.44
2023-01-28T12:40:32.054Z,102441.98
2023-01-28T12:41:40.371Z,102444.39
2023-01-28T12:42:51.795Z,102437.86
2023-01-28T12:44:03.778Z,102437.85
2023-01-28T12:45:25.020Z,102431.86
2023-01-28T12:46:34.213Z,102430.61
2023-01-28T12:47:39.400Z,102426.73
2023-01-28T12:48:51.188Z,102420.70
2023-01-28T12:49:58.485Z,102417.50
2023-01-28T12:51:14.549Z,102417.94
2023-01-28T12:52:24.372Z,102413.20
2023-01-28T12:53:30.472Z,102408.88
2023-01-28T12:54:40.477Z,102408.45
2023-01-28T12:55:46.375Z,102407.38
2023-01-28T12:56:51.139Z,102408.17
2023-01-28T12:57:56.582Z,102404.80
2023-01-28T12:59:22.295Z,102410.10
2023-01-28T13:00:30.287Z,102407.06
2023-01-28T13:01:47.460Z,102405.52
2023-01-28T13:02:56.883Z,102405.52
2023-01-28T13:04:18.757Z,102411.05
2023-01-28T13:05:25.370Z,102404.60
2023-01-28T13:06:38.192Z,102396.23
2023-01-28T13:07:53.657Z,102395.88
2023-01-28T13:08:59.136Z,102387.77
2023-01-28T13:10:05.084Z,102387.63
2023-01-28T13:11:13.553Z,102387.73
2023-01-28T13:12:17.222Z,102387.63
2023-01-28T13:13:29.087Z,102389.30
2023-01-28T13:14:33.566Z,102391.80
2023-01-28T13:15:40.520Z,102390.56
2023-01-28T13:16:43.894Z,102389.19
2023-01-28T13:17:55.888Z,102383.55
2023-01-28T13:19:06.917Z,102384.44
2023-01-28T13:20:16.463Z,102378.12
2023-01-28T13:21:25.563Z,102380.36
2023-01-28T13:22:28.595Z,102374.08
2023-01-28T13:23:32.493Z,102372.83
2023-01-28T13:24:35.616Z,102371.58
2023-01-28T13:25:48.261Z,102369.11
2023-01-28T13:26:51.113Z,102367.67
2023-01-28T13:27:58.829Z,102365.45
2023-01-28T13:29:14.185Z,102359.56
2023-01-28T13:30:25.571Z,102360.11
2023-01-28T13:31:36.825Z,102360.11
2023-01-28T13:32:39.729Z,102354.41
2023-01-28T13:33:44.080Z,102357.06
2023-01-28T13:34:56.812Z,102354.55
2023-01-28T13:36:02.746Z,102354.77
2023-01-28T13:37:27.344Z,102350.60
2023-01-28T13:38:36.504Z,102352.52
2023-01-28T13:39:52.089Z,102352.16
2023-01-28T13:40:56.315Z,102357.52
2023-01-28T13:42:22.121Z,102360.84
2023-01-28T13:43:27.704Z,102363.89
2023-01-28T13:44:30.477Z,102363.00
2023-01-28T13:45:34.332Z,102364.82
2023-01-28T13:46:40.232Z,102368.88
2023-01-28T13:47:48.128Z,102366.98
2023-01-28T13:48:54.650Z,102363.52
2023-01-28T13:50:04.020Z,102368.49
2023-01-28T13:51:19.658Z,102365.52
2023-01-28T13:52:31.842Z,102363.34
2023-01-28T13:53:48.293Z,102367.66
2023-01-28T13:54:54.622Z,102363.66
2023-01-28T13:55:59.313Z,102360.94
2023-01-28T13:57:08.635Z,102357.01
2023-01-28T13:58:42.776Z,102354.09
2023-01-28T13:59:46.222Z,102350.27
2023-01-28T14:00:54.828Z,102353.07
2023-01-28T14:02:15.726Z,102353.32
2023-01-28T14:03:35.222Z,102356.05
2023-01-28T14:04:49.968Z,102359.73
2023-01-28T14:06:11.477Z,102360.41
2023-01-28T14:07:35.835Z,102362.29
2023-01-28T14:08:46.821Z,102357.76
2023-01-28T14:09:59.423Z,102355.23
2023-01-28T14:11:16.181Z,102347.30
2023-01-28T14:12:31.289Z,102341.70
2023-01-28T14:14:04.656Z,102339.45
2023-01-28T14:15:27.257Z,102339.07
2023-01-28T14:16:52.099Z,102333.71
2023-01-28T14:17:56.401Z,102332.42
2023-01-28T14:19:02.087Z,102330.44
2023-01-28T14:20:05.976Z,102328.34
2023-01-28T14:21:22.474Z,102327.58
2023-01-28T14:22:26.227Z,102325.02
2023-01-28T14:23:32.010Z,102324.73
2023-01-28T14:24:42.444Z,102325.96
2023-01-28T14:25:48.218Z,102323.10
2023-01-28T14:27:03.390Z,102322.27
2023-01-28T14:28:07.212Z,102321.77
2023-01-28T14:29:11.356Z,102317.07
2023-01-28T14:30:33.191Z,102320.19
2023-01-28T14:31:39.500Z,102321.64
2023-01-28T14:32:50.297Z,102323.27
2023-01-28T14:33:55.026Z,102325.86
2023-01-28T14:35:01.323Z,102321.94
2023-01-28T14:36:05.246Z,102321.46
2023-01-28T14:37:11.289Z,102315.90
2023-01-28T14:38:23.338Z,102313.69
2023-01-28T14:39:28.246Z,102307.81
2023-01-28T14:40:31.976Z,102306.90
2023-01-28T14:41:35.071Z,102312.23
2023-01-28T14:42:39.946Z,102313.70
2023-01-28T14:43:43.048Z,102319.75
2023-01-28T14:44:47.792Z,102320.64
2023-01-28T14:45:56.645Z,102315.88
2023-01-28T14:47:10.173Z,102312.46
2023-01-28T14:48:15.975Z,102315.77
2023-01-28T14:49:30.913Z,102321.02
2023-01-28T14:50:48.746Z,102325.64
2023-01-28T14:51:58.562Z,102324.95
2023-01-28T14:53:16.598Z,102329.83
2023-01-28T14:54:35.409Z,102330.59
2023-01-28T14:56:03.638Z,102332.48
2023-01-28T14:57:25.105Z,102330.05
2023-01-28T14:58:57.344Z,102326.94
2023-01-28T15:00:01.689Z,102322.87
2023-01-28T15:01:04.949Z,102326.84
2023-01-28T15:02:21.868Z,102323.95
2023-01-28T15:03:26.186Z,102323.84
2023-01-28T15:04:30.834Z,102323.14
2023-01-28T15:05:33.676Z,102327.24
2023-01-28T15:06:37.076Z,102329.63
2023-01-28T15:07:43.572Z,102339.98
2023-01-28T15:08:46.672Z,102347.89
2023-01-28T15:10:04.915Z,102345.05
2023-01-28T15:11:11.336Z,102348.10
2023-01-28T15:12:16.149Z,102350.52
2023-01-28T15:13:29.641Z,102354.37
2023-01-28T15:14:32.995Z,102359.52
2023-01-28T15:15:37.142Z,102360.89
2023-01-28T15:16:39.930Z,102363.83
2023-01-28T15:17:42.892Z,102364.27
2023-01-28T15:18:46.707Z,102364.10
2023-01-28T15:19:49.542Z,102365.75
2023-01-28T15:20:54.203Z,102361.92
2023-01-28T15:21:57.835Z,102364.60
2023-01-28T15:23:01.793Z,102362.95
2023-01-28T15:24:05.270Z,102365.86
2023-01-28T15:25:15.441Z,102366.54
2023-01-28T15:26:20.374Z,102365.83
2023-01-28T15:27:30.400Z,102367.98
2023-01-28T15:28:35.468Z,102373.00
2023-01-28T15:29:38.281Z,102380.95
2023-01-28T15:30:45.922Z,102384.14
2023-01-28T15:31:49.643Z,102380.61
2023-01-28T15:32:59.213Z,102380.69
2023-01-28T15:34:15.614Z,102380.98
2023-01-28T15:35:18.435Z,102376.55
2023-01-28T15:36:21.276Z,102373.75
2023-01-28T15:37:24.095Z,102372.17